Time;durP1;ratioP1;P1;durP2;ratioP2;P2;SDS_P1;SDS_P2;PMS_P1;PMS_P2;Temp;Humidity;BMP_temperature;BMP_pressure;BME280_temperature;BME280_humidity;BME280_pressure;Samples;Min_cycle;Max_cycle;Signal;HPM_P1;HPM_P2
2023/05/12 00:01:33;;;;;;;11.77;3.58;;;;;;;9.34;100.00;98731.53;4500604;31;20151;-66
2023/05/12 00:04:01;;;;;;;4.87;3.55;;;;;;;9.37;100.00;98726.03;4500565;31;20100;-66
2023/05/12 00:06:28;;;;;;;6.15;3.10;;;;;;;9.39;100.00;98718.88;4499177;31;20469;-66
2023/05/12 00:08:55;;;;;;;5.65;3.40;;;;;;;9.40;100.00;98715.31;4500503;31;20126;-66
2023/05/12 00:11:23;;;;;;;4.72;2.87;;;;;;;9.41;100.00;98719.56;4500510;31;20103;-66
2023/05/12 00:13:50;;;;;;;6.43;3.08;;;;;;;9.38;100.00;98717.22;4484948;31;20157;-66
2023/05/12 00:16:17;;;;;;;8.20;2.92;;;;;;;9.43;100.00;98711.59;4497700;31;20512;-66
2023/05/12 00:18:45;;;;;;;5.95;3.42;;;;;;;9.43;100.00;98713.37;4500565;31;20088;-66
2023/05/12 00:21:12;;;;;;;10.82;3.80;;;;;;;9.40;100.00;98709.25;4500321;31;20832;-66
2023/05/12 00:23:39;;;;;;;8.55;2.92;;;;;;;9.40;100.00;98710.09;4500517;31;20530;-66
2023/05/12 00:26:06;;;;;;;11.05;3.40;;;;;;;9.41;100.00;98711.72;4500325;31;20084;-66
2023/05/12 00:28:34;;;;;;;6.30;3.58;;;;;;;9.39;100.00;98703.19;4500502;31;20088;-66
2023/05/12 00:31:02;;;;;;;6.37;3.60;;;;;;;9.46;100.00;98702.66;4500290;31;20149;-66
2023/05/12 00:33:30;;;;;;;5.25;3.10;;;;;;;9.42;100.00;98704.72;4500319;31;20096;-66
2023/05/12 00:36:02;;;;;;;6.32;3.42;;;;;;;9.43;100.00;98695.09;4498940;31;20155;-66
2023/05/12 00:38:30;;;;;;;6.60;3.20;;;;;;;9.33;100.00;98708.94;4500388;31;20091;-66
2023/05/12 00:40:57;;;;;;;5.78;3.00;;;;;;;9.33;100.00;98692.44;4500315;31;20100;-66
2023/05/12 00:43:24;;;;;;;5.97;3.28;;;;;;;9.32;100.00;98696.00;4500211;31;20195;-66
2023/05/12 00:45:55;;;;;;;6.43;2.72;;;;;;;9.31;100.00;98697.81;4500440;31;20509;-66
2023/05/12 00:48:22;;;;;;;5.82;2.95;;;;;;;9.34;100.00;98694.06;4500180;31;20088;-66
2023/05/12 00:50:50;;;;;;;5.82;2.90;;;;;;;9.38;100.00;98693.69;4498180;31;20120;-66
2023/05/12 00:53:17;;;;;;;5.07;3.20;;;;;;;9.41;100.00;98696.03;4500203;31;20147;-66
2023/05/12 00:55:44;;;;;;;4.93;2.85;;;;;;;9.29;100.00;98697.09;4498349;31;20112;-66
2023/05/12 00:58:12;;;;;;;7.43;3.47;;;;;;;9.26;100.00;98694.75;4485303;31;20087;-66
2023/05/12 01:00:39;;;;;;;6.22;2.72;;;;;;;9.33;100.00;98690.66;4499871;31;20151;-66
2023/05/12 01:03:06;;;;;;;5.22;3.00;;;;;;;9.37;100.00;98691.19;4499503;31;20130;-66
2023/05/12 01:05:58;;;;;;;6.47;3.78;;;;;;;9.32;100.00;98693.41;4500123;31;20521;-66
2023/05/12 01:08:25;;;;;;;4.20;2.90;;;;;;;9.38;100.00;98691.06;4498438;31;20084;-66
2023/05/12 01:10:53;;;;;;;6.32;3.10;;;;;;;9.37;100.00;98694.66;4499984;31;20146;-66
2023/05/12 01:13:20;;;;;;;4.50;2.55;;;;;;;9.38;100.00;98685.84;4487528;31;20092;-66
2023/05/12 01:15:49;;;;;;;4.53;2.75;;;;;;;9.37;100.00;98694.66;4493842;31;20075;-66
2023/05/12 01:18:18;;;;;;;5.15;2.90;;;;;;;9.49;100.00;98697.16;4499440;31;20152;-66
2023/05/12 01:20:46;;;;;;;5.18;2.85;;;;;;;9.44;100.00;98696.75;4500311;31;20160;-66
2023/05/12 01:23:17;;;;;;;5.28;2.65;;;;;;;9.41;100.00;98696.03;4501812;31;20088;-66
2023/05/12 01:25:45;;;;;;;4.12;2.92;;;;;;;9.43;100.00;98693.28;4501975;31;20158;-66
2023/05/12 01:28:12;;;;;;;4.07;2.80;;;;;;;9.39;100.00;98700.56;4500500;31;20076;-66
2023/05/12 01:30:41;;;;;;;4.68;3.15;;;;;;;9.47;100.00;98701.72;4500845;31;20100;-66
2023/05/12 01:33:09;;;;;;;5.32;3.22;;;;;;;9.49;100.00;98691.94;4500443;31;20122;-66
2023/05/12 01:35:37;;;;;;;5.65;3.35;;;;;;;9.46;100.00;98693.03;4501788;31;20091;-66
2023/05/12 01:38:04;;;;;;;7.03;3.25;;;;;;;9.47;100.00;98697.31;4500426;31;20096;-66
2023/05/12 01:40:31;;;;;;;8.30;3.15;;;;;;;9.47;100.00;98696.50;4502322;31;20092;-66
2023/05/12 01:42:59;;;;;;;7.20;3.53;;;;;;;9.50;100.00;98698.84;4501765;31;20096;-66
2023/05/12 01:45:27;;;;;;;5.60;3.28;;;;;;;9.44;100.00;98700.19;4502106;31;20118;-66
2023/05/12 01:47:55;;;;;;;4.85;2.95;;;;;;;9.36;100.00;98700.03;4501466;31;20115;-66
2023/05/12 01:50:22;;;;;;;9.82;3.78;;;;;;;9.40;100.00;98702.25;4500641;31;20479;-66
2023/05/12 01:52:49;;;;;;;6.03;3.15;;;;;;;9.39;100.00;98705.81;4501962;31;20087;-66
2023/05/12 01:55:17;;;;;;;7.03;3.12;;;;;;;9.42;100.00;98707.34;4501758;31;20108;-66
2023/05/12 01:57:44;;;;;;;6.18;3.05;;;;;;;9.44;100.00;98708.03;4501476;31;20088;-66
2023/05/12 02:00:12;;;;;;;4.18;2.80;;;;;;;9.55;100.00;98707.09;4501927;31;20148;-66
2023/05/12 02:02:39;;;;;;;4.97;3.15;;;;;;;9.48;100.00;98713.81;4501423;31;20076;-66
2023/05/12 02:05:10;;;;;;;11.63;3.42;;;;;;;9.43;100.00;98711.59;4500709;31;20096;-66
2023/05/12 02:07:38;;;;;;;5.75;3.10;;;;;;;9.47;100.00;98707.75;4501704;31;20083;-66
2023/05/12 02:10:06;;;;;;;5.72;3.50;;;;;;;9.41;100.00;98716.94;4501683;31;20610;-66
2023/05/12 02:12:34;;;;;;;6.40;3.87;;;;;;;9.40;100.00;98709.25;4494020;31;20158;-66
2023/05/12 02:15:01;;;;;;;5.03;3.30;;;;;;;9.40;100.00;98714.47;4490841;31;20095;-66
2023/05/12 02:17:28;;;;;;;6.65;3.20;;;;;;;9.42;100.00;98712.56;4501646;31;20160;-66
2023/05/12 02:19:56;;;;;;;5.45;3.08;;;;;;;9.41;100.00;98708.28;4501368;31;20119;-66
2023/05/12 02:22:23;;;;;;;6.35;3.60;;;;;;;9.38;100.00;98716.41;4501582;31;20107;-66
2023/05/12 02:24:50;;;;;;;4.82;3.15;;;;;;;9.37;100.00;98710.34;4501360;31;20088;-66
2023/05/12 02:27:18;;;;;;;5.32;3.25;;;;;;;9.40;100.00;98714.47;4501564;31;20095;-66
2023/05/12 02:29:45;;;;;;;4.57;3.03;;;;;;;9.38;100.00;98722.44;4500812;31;20149;-66
2023/05/12 02:32:13;;;;;;;4.90;3.22;;;;;;;9.35;100.00;98716.66;4501448;31;20092;-66
2023/05/12 02:34:42;;;;;;;5.60;3.00;;;;;;;9.32;100.00;98722.97;4501521;31;20092;-66
2023/05/12 02:37:09;;;;;;;5.90;3.58;;;;;;;9.34;100.00;98717.59;4501673;31;20110;-66
2023/05/12 02:39:36;;;;;;;7.53;3.25;;;;;;;9.38;100.00;98717.22;4501614;31;20163;-66
2023/05/12 02:42:05;;;;;;;4.93;3.42;;;;;;;9.38;100.00;98719.81;4501269;31;20156;-66
2023/05/12 02:44:32;;;;;;;5.47;3.17;;;;;;;9.32;100.00;98716.91;4501512;31;20155;-66
2023/05/12 02:47:00;;;;;;;5.05;3.65;;;;;;;9.27;100.00;98717.31;4501497;31;20080;-66
2023/05/12 02:49:28;;;;;;;4.45;3.08;;;;;;;9.25;100.00;98714.00;4501609;31;20088;-66
2023/05/12 02:51:55;;;;;;;5.40;2.78;;;;;;;9.31;100.00;98715.25;4501283;31;20120;-66
2023/05/12 02:54:22;;;;;;;4.95;3.00;;;;;;;9.30;100.00;98714.44;4499864;31;20171;-66
2023/05/12 02:56:50;;;;;;;6.37;3.20;;;;;;;9.35;100.00;98712.25;4501483;31;20083;-66
2023/05/12 02:59:17;;;;;;;11.02;3.05;;;;;;;9.34;100.00;98710.63;4501195;31;20105;-66
2023/05/12 03:01:44;;;;;;;3.95;2.47;;;;;;;9.34;100.00;98713.22;4501202;31;20505;-66
2023/05/12 03:04:13;;;;;;;5.20;3.30;;;;;;;9.34;100.00;98717.59;4501288;31;20087;-66
2023/05/12 03:06:40;;;;;;;5.57;3.10;;;;;;;9.30;100.00;98719.66;4501177;31;20441;-66
2023/05/12 03:09:07;;;;;;;4.97;3.20;;;;;;;9.31;100.00;98721.34;4501278;31;20092;-66
2023/05/12 03:11:34;;;;;;;4.12;2.80;;;;;;;9.31;100.00;98723.09;4500688;31;20099;-66
2023/05/12 03:14:02;;;;;;;4.07;2.80;;;;;;;9.31;100.00;98716.09;4485189;32;20421;-66
2023/05/12 03:16:29;;;;;;;4.07;2.70;;;;;;;9.30;100.00;98714.44;4499841;31;20152;-66
2023/05/12 03:18:56;;;;;;;8.35;2.90;;;;;;;9.34;100.00;98717.59;4500841;31;20632;-66
2023/05/12 03:21:27;;;;;;;4.47;3.20;;;;;;;9.25;100.00;98716.62;4501102;31;20126;-66
2023/05/12 03:23:54;;;;;;;7.75;3.22;;;;;;;9.27;100.00;98719.94;4500983;31;20503;-66
2023/05/12 03:26:22;;;;;;;4.82;2.80;;;;;;;9.27;100.00;98713.87;4501092;31;20080;-66
2023/05/12 03:28:49;;;;;;;5.97;3.22;;;;;;;9.25;100.00;98714.00;4501330;31;20088;-66
2023/05/12 03:31:16;;;;;;;4.30;3.15;;;;;;;9.18;100.00;98713.69;4501287;31;20100;-66
2023/05/12 03:33:44;;;;;;;5.43;3.10;;;;;;;9.22;100.00;98716.88;4500893;31;20095;-66
2023/05/12 03:36:11;;;;;;;7.53;3.47;;;;;;;9.22;100.00;98717.72;4501061;31;20118;-66
2023/05/12 03:38:40;;;;;;;5.15;3.08;;;;;;;9.29;100.00;98707.53;4500912;31;20438;-66
2023/05/12 03:41:08;;;;;;;6.37;3.40;;;;;;;9.27;100.00;98706.03;4501083;31;20211;-66
2023/05/12 03:43:35;;;;;;;6.87;3.22;;;;;;;9.27;100.00;98712.09;4501096;31;20099;-66
2023/05/12 03:46:03;;;;;;;6.50;2.97;;;;;;;9.26;100.00;98717.44;4500977;31;20565;-66
2023/05/12 03:48:30;;;;;;;3.35;2.50;;;;;;;9.27;100.00;98719.94;4500691;31;20088;-66
2023/05/12 03:50:57;;;;;;;4.82;3.50;;;;;;;9.31;100.00;98710.03;4499250;31;20104;-66
2023/05/12 03:53:24;;;;;;;5.68;3.53;;;;;;;9.38;100.00;98712.00;4500808;31;20126;-66
2023/05/12 03:55:52;;;;;;;9.85;3.20;;;;;;;9.31;100.00;98715.25;4500679;31;20076;-66
2023/05/12 03:58:21;;;;;;;4.90;3.00;;;;;;;9.36;100.00;98723.56;4500776;31;20157;-66
2023/05/12 04:00:49;;;;;;;5.60;2.85;;;;;;;9.42;100.00;98712.56;4500660;31;20154;-66
2023/05/12 04:03:16;;;;;;;7.22;3.53;;;;;;;9.46;100.00;98719.16;4500547;31;20189;-66
2023/05/12 04:05:44;;;;;;;5.72;3.47;;;;;;;9.41;100.00;98730.03;4500716;31;20096;-66
2023/05/12 04:08:11;;;;;;;4.95;3.10;;;;;;;9.41;100.00;98727.41;4500845;31;20442;-66
2023/05/12 04:10:39;;;;;;;4.62;3.40;;;;;;;9.39;100.00;98734.56;4500682;31;20120;-66
2023/05/12 04:13:07;;;;;;;4.75;3.60;;;;;;;9.40;100.00;98725.78;4489821;31;20160;-66
2023/05/12 04:15:34;;;;;;;4.18;3.20;;;;;;;9.48;100.00;98726.88;4483513;32;20114;-66
2023/05/12 04:18:02;;;;;;;6.40;3.37;;;;;;;9.50;100.00;98720.56;4485052;31;20127;-66
2023/05/12 04:20:30;;;;;;;4.65;2.97;;;;;;;9.57;100.00;98736.59;4484757;31;20153;-66
2023/05/12 04:22:57;;;;;;;4.87;2.90;;;;;;;9.56;100.00;98738.34;4484769;31;20506;-66
2023/05/12 04:25:25;;;;;;;4.37;3.12;;;;;;;9.56;100.00;98737.53;4484835;31;20100;-66
2023/05/12 04:27:52;;;;;;;4.53;2.95;;;;;;;9.59;100.00;98734.66;4484932;32;20093;-66
2023/05/12 04:30:21;;;;;;;4.45;2.90;;;;;;;9.55;100.00;98733.25;4484809;31;20134;-66
2023/05/12 04:32:48;;;;;;;6.12;3.28;;;;;;;9.57;100.00;98740.03;4484655;31;20121;-66
2023/05/12 04:35:15;;;;;;;7.45;3.30;;;;;;;9.54;100.00;98731.62;4484316;31;20437;-66
2023/05/12 04:37:43;;;;;;;8.10;3.75;;;;;;;9.59;100.00;98737.28;4484712;31;20092;-66
2023/05/12 04:40:10;;;;;;;11.40;3.60;;;;;;;9.60;100.00;98736.31;4484330;31;20468;-66
2023/05/12 04:42:37;;;;;;;10.57;5.22;;;;;;;9.58;100.00;98738.22;4484711;31;20100;-66
2023/05/12 04:45:06;;;;;;;5.75;3.42;;;;;;;9.58;100.00;98735.59;4484550;31;20092;-65
2023/05/12 04:47:34;;;;;;;4.40;3.00;;;;;;;9.57;100.00;98741.81;4484358;31;20244;-66
2023/05/12 04:50:03;;;;;;;4.82;2.50;;;;;;;9.60;100.00;98736.31;4484169;31;20119;-66
2023/05/12 04:52:30;;;;;;;6.05;2.70;;;;;;;9.62;100.00;98730.97;4484305;31;20250;-66
2023/05/12 04:54:58;;;;;;;7.80;3.17;;;;;;;9.59;100.00;98735.47;4486236;31;20103;-66
2023/05/12 04:57:25;;;;;;;5.28;2.67;;;;;;;9.64;100.00;98745.53;4486621;31;20119;-66
2023/05/12 04:59:54;;;;;;;5.57;3.58;;;;;;;9.66;100.00;98745.41;4486503;31;20154;-66
2023/05/12 05:02:21;;;;;;;7.75;2.87;;;;;;;9.52;100.00;98752.69;4486070;31;20187;-66
2023/05/12 05:04:49;;;;;;;4.47;2.75;;;;;;;9.61;100.00;98752.84;4486160;31;20080;-66
2023/05/12 05:07:16;;;;;;;4.87;2.55;;;;;;;9.64;100.00;98745.53;4486266;31;20104;-66
2023/05/12 05:09:44;;;;;;;4.60;2.75;;;;;;;9.66;100.00;98746.25;4486146;31;20408;-66
2023/05/12 05:12:11;;;;;;;4.25;3.03;;;;;;;9.74;100.00;98753.44;4491249;31;20088;-66
2023/05/12 05:14:39;;;;;;;7.70;3.30;;;;;;;9.74;100.00;98749.03;4499601;31;20163;-66
2023/05/12 05:17:06;;;;;;;4.25;2.47;;;;;;;9.66;100.00;98746.25;4486091;32;20194;-66
2023/05/12 05:19:34;;;;;;;6.55;3.00;;;;;;;9.69;100.00;98751.22;4471944;32;20150;-66
2023/05/12 05:22:21;;;;;;;6.50;3.42;;;;;;;9.73;100.00;98760.44;4486673;32;20088;-66
2023/05/12 05:24:49;;;;;;;6.28;3.70;;;;;;;9.74;100.00;98751.66;4486391;31;20080;-66
2023/05/12 05:27:16;;;;;;;4.72;2.97;;;;;;;9.78;100.00;98754.84;4486214;31;20096;-66
2023/05/12 05:29:44;;;;;;;6.62;3.70;;;;;;;9.85;100.00;98757.75;4486567;31;20101;-66
2023/05/12 05:32:11;;;;;;;6.47;3.40;;;;;;;9.87;100.00;98758.44;4486120;31;20160;-66
2023/05/12 05:34:39;;;;;;;4.95;3.28;;;;;;;9.88;100.00;98760.91;4486017;31;20080;-66
2023/05/12 05:37:06;;;;;;;7.00;3.83;;;;;;;9.94;100.00;98759.56;4485927;32;20097;-66
2023/05/12 05:39:36;;;;;;;6.00;3.85;;;;;;;9.97;100.00;98758.47;4484524;32;20120;-66
2023/05/12 05:42:04;;;;;;;6.97;3.47;;;;;;;9.96;100.00;98770.72;4486056;31;20103;-66
2023/05/12 05:44:31;;;;;;;7.55;4.00;;;;;;;10.01;100.00;98771.16;4486082;31;20080;-66
2023/05/12 05:46:59;;;;;;;4.87;3.58;;;;;;;9.98;100.00;98766.19;4492089;31;20445;-66
2023/05/12 05:49:26;;;;;;;8.50;4.40;;;;;;;10.04;100.00;98768.28;4500457;31;20561;-66
2023/05/12 05:51:55;;;;;;;6.37;4.43;;;;;;;10.04;100.00;98770.88;4501365;31;20548;-66
2023/05/12 05:54:25;;;;;;;9.20;4.55;;;;;;;10.00;100.00;98776.53;4501348;31;20567;-66
2023/05/12 05:56:52;;;;;;;6.15;4.10;;;;;;;10.07;100.00;98770.62;4501888;31;20089;-66
2023/05/12 05:59:19;;;;;;;6.62;3.70;;;;;;;10.11;100.00;98776.41;4501721;31;20824;-66
2023/05/12 06:01:46;;;;;;;9.02;4.53;;;;;;;10.05;100.00;98779.56;4501484;31;20111;-66
2023/05/12 06:04:14;;;;;;;9.05;4.00;;;;;;;10.12;100.00;98788.53;4500233;31;20205;-66
2023/05/12 06:06:42;;;;;;;6.25;3.80;;;;;;;10.11;100.00;98782.50;4501669;31;20116;-66
2023/05/12 06:09:11;;;;;;;5.80;3.75;;;;;;;10.13;100.00;98784.97;4501653;31;20112;-66
2023/05/12 06:11:38;;;;;;;5.53;3.85;;;;;;;10.19;100.00;98794.91;4501576;31;20178;-66
2023/05/12 06:14:05;;;;;;;9.30;4.22;;;;;;;10.25;100.00;98780.44;4501496;31;20140;-66
2023/05/12 06:16:32;;;;;;;8.93;4.30;;;;;;;10.16;100.00;98789.09;4486518;31;20104;-66
2023/05/12 06:19:00;;;;;;;7.47;4.37;;;;;;;10.31;100.00;98785.16;4485739;31;20441;-66
2023/05/12 06:21:27;;;;;;;7.12;4.18;;;;;;;10.22;100.00;98793.78;4485474;31;20564;-66
2023/05/12 06:23:55;;;;;;;9.68;4.25;;;;;;;10.27;100.00;98784.56;4485683;31;20144;-66
2023/05/12 06:26:23;;;;;;;6.65;3.37;;;;;;;10.34;100.00;98790.16;4485403;31;20147;-66
2023/05/12 06:28:50;;;;;;;9.70;4.30;;;;;;;10.33;100.00;98778.00;4485719;31;20163;-66
2023/05/12 06:31:17;;;;;;;7.75;4.43;;;;;;;10.45;100.00;98792.62;4485471;31;20163;-66
2023/05/12 06:33:46;;;;;;;5.55;4.10;;;;;;;10.56;100.00;98794.31;4485660;31;20513;-66
2023/05/12 06:36:13;;;;;;;6.18;4.07;;;;;;;10.50;100.00;98802.69;4485435;31;20497;-66
2023/05/12 06:38:40;;;;;;;6.90;4.37;;;;;;;10.54;100.00;98795.41;4485847;32;20196;-66
2023/05/12 06:41:07;;;;;;;5.28;3.37;;;;;;;10.57;100.00;98792.53;4485640;32;20115;-66
2023/05/12 06:43:35;;;;;;;8.10;3.58;;;;;;;10.60;100.00;98798.31;4485502;31;20463;-66
2023/05/12 06:46:02;;;;;;;6.25;3.83;;;;;;;10.54;100.00;98785.75;4485867;31;20493;-66
2023/05/12 06:48:29;;;;;;;6.07;3.97;;;;;;;10.63;100.00;98797.22;4485559;31;20093;-66
2023/05/12 06:50:57;;;;;;;8.00;4.20;;;;;;;10.62;100.00;98785.06;4485327;31;20510;-66
2023/05/12 06:53:32;;;;;;;6.20;4.07;;;;;;;10.75;100.00;98790.88;4485602;32;20098;-66
2023/05/12 06:56:00;;;;;;;5.32;3.75;;;;;;;10.83;100.00;98788.38;4485442;31;20096;-66
2023/05/12 06:58:27;;;;;;;7.32;4.50;;;;;;;10.79;100.00;98784.38;4485497;31;20115;-66
2023/05/12 07:00:54;;;;;;;8.70;4.65;;;;;;;10.93;100.00;98793.62;4485503;32;20474;-66
2023/05/12 07:03:22;;;;;;;9.27;4.82;;;;;;;11.12;100.00;98792.78;4485107;31;20122;-66
2023/05/12 07:05:49;;;;;;;6.70;4.60;;;;;;;11.10;100.00;98802.59;4485382;32;20081;-66
2023/05/12 07:08:16;;;;;;;6.45;4.47;;;;;;;10.95;100.00;98801.34;4485363;32;20096;-66
2023/05/12 07:10:43;;;;;;;7.62;4.60;;;;;;;10.91;100.00;98797.34;4485406;32;20468;-66
2023/05/12 07:13:10;;;;;;;5.32;4.22;;;;;;;10.86;100.00;98807.44;4496589;31;20167;-66
2023/05/12 07:15:37;;;;;;;8.10;4.60;;;;;;;10.92;100.00;98799.03;4491720;31;20137;-66
2023/05/12 07:18:06;;;;;;;6.72;4.47;;;;;;;10.97;100.00;98795.00;4484461;31;20097;-66
2023/05/12 07:20:33;;;;;;;7.47;4.03;;;;;;;11.01;100.00;98795.56;4493246;31;20136;-66
2023/05/12 07:23:00;;;;;;;7.68;4.93;;;;;;;10.98;100.00;98804.53;4485096;32;20092;-66
2023/05/12 07:25:27;;;;;;;8.50;4.72;;;;;;;11.03;100.00;98801.47;4485169;32;20113;-66
2023/05/12 07:27:55;;;;;;;8.07;4.25;;;;;;;11.08;100.00;98807.16;4483818;32;20643;-66
2023/05/12 07:30:22;;;;;;;7.53;4.37;;;;;;;11.05;100.00;98804.78;4490850;31;20148;-65
2023/05/12 07:32:49;;;;;;;5.85;3.83;;;;;;;11.06;100.00;98808.25;4483486;31;20104;-66
2023/05/12 07:35:17;;;;;;;10.40;5.12;;;;;;;10.95;100.00;98802.19;4493395;31;20092;-66
2023/05/12 07:37:45;;;;;;;9.25;4.78;;;;;;;11.04;100.00;98797.91;4489759;31;20154;-66
2023/05/12 07:40:13;;;;;;;8.60;4.15;;;;;;;11.20;100.00;98805.19;4488003;31;20112;-66
2023/05/12 07:42:40;;;;;;;10.20;4.05;;;;;;;11.11;100.00;98803.41;4495848;31;20092;-66
2023/05/12 07:45:07;;;;;;;6.75;4.20;;;;;;;11.16;100.00;98806.44;4490687;31;20461;-66
2023/05/12 07:47:34;;;;;;;8.10;4.20;;;;;;;11.25;100.00;98804.75;4492598;31;20149;-66
2023/05/12 07:50:02;;;;;;;8.98;4.90;;;;;;;11.16;100.00;98809.88;4483730;31;207817;-66
2023/05/12 07:52:29;;;;;;;8.98;4.72;;;;;;;11.36;100.00;98810.69;4489946;31;20095;-66
2023/05/12 07:54:56;;;;;;;5.80;4.00;;;;;;;11.52;100.00;98809.25;4487545;31;20163;-66
2023/05/12 07:57:23;;;;;;;7.93;4.90;;;;;;;11.74;100.00;98810.72;4485445;31;20551;-66
2023/05/12 07:59:51;;;;;;;7.80;4.60;;;;;;;11.65;100.00;98801.09;4488889;31;20534;-66
2023/05/12 08:02:19;;;;;;;9.85;4.43;;;;;;;11.80;100.00;98811.97;4489062;31;20179;-66
2023/05/12 08:04:46;;;;;;;11.55;4.55;;;;;;;11.90;100.00;98812.75;4490569;31;20509;-66
2023/05/12 08:07:14;;;;;;;9.40;4.12;;;;;;;11.82;100.00;98820.50;4490726;31;20147;-66
2023/05/12 08:09:41;;;;;;;6.90;3.80;;;;;;;11.77;100.00;98823.56;4491497;31;20099;-66
2023/05/12 08:12:09;;;;;;;7.25;4.07;;;;;;;11.73;100.00;98819.56;4488928;31;20112;-66
2023/05/12 08:14:36;;;;;;;5.78;3.97;;;;;;;11.60;100.00;98819.87;4488017;31;20092;-66
2023/05/12 08:17:03;;;;;;;7.70;4.57;;;;;;;11.64;100.00;98823.88;4482735;31;20476;-66
2023/05/12 08:19:31;;;;;;;7.05;4.30;;;;;;;11.56;100.00;98826.38;4484638;31;20580;-66
2023/05/12 08:21:59;;;;;;;9.48;4.40;;;;;;;11.66;100.00;98821.13;4488388;31;20117;-66
2023/05/12 08:24:26;;;;;;;6.30;3.90;;;;;;;11.68;100.00;98834.91;4494830;31;20140;-66
2023/05/12 08:26:53;;;;;;;6.65;3.85;;;;;;;11.87;100.00;98832.22;4492879;31;20199;-66
2023/05/12 08:29:20;;;;;;;6.22;4.37;;;;;;;11.85;100.00;98833.34;4495212;31;20437;-67
2023/05/12 08:31:47;;;;;;;12.05;4.25;;;;;;;11.92;100.00;98831.81;4485006;31;20163;-66
2023/05/12 08:34:15;;;;;;;5.47;3.72;;;;;;;11.95;100.00;98836.78;4485755;31;20188;-66
2023/05/12 08:36:42;;;;;;;11.15;4.07;;;;;;;11.85;100.00;98838.59;4490134;31;20122;-66
2023/05/12 08:39:10;;;;;;;7.87;3.95;;;;;;;11.87;100.00;98837.47;4486111;31;20152;-66
2023/05/12 08:42:03;;;;;;;5.53;3.92;;;;;;;11.95;100.00;98841.22;4488010;31;20119;-66
2023/05/12 08:44:31;;;;;;;9.65;4.85;;;;;;;11.90;100.00;98847.69;4495387;31;20160;-65
2023/05/12 08:46:59;;;;;;;6.70;4.35;;;;;;;11.68;100.00;98837.53;4490900;31;20197;-65
2023/05/12 08:49:28;;;;;;;7.80;4.87;;;;;;;11.56;100.00;98842.13;4480587;31;20100;-66
2023/05/12 08:51:55;;;;;;;9.93;4.60;;;;;;;11.72;100.00;98836.28;4486158;31;20210;-66
2023/05/12 08:54:26;;;;;;;6.50;4.60;;;;;;;11.71;100.00;98838.06;4484895;31;20124;-66
2023/05/12 08:56:54;;;;;;;8.50;4.40;;;;;;;11.68;100.00;98840.97;4490872;31;20096;-66
2023/05/12 08:59:25;;;;;;;7.68;4.22;;;;;;;11.59;100.00;98846.28;4491604;31;20159;-66
2023/05/12 09:01:54;;;;;;;7.97;5.28;;;;;;;11.46;100.00;98851.81;4481082;31;20104;-66
2023/05/12 09:04:21;;;;;;;11.25;5.00;;;;;;;11.52;100.00;98848.63;4487990;31;20084;-66
2023/05/12 09:06:49;;;;;;;6.68;4.55;;;;;;;11.50;100.00;98859.25;4487442;31;20157;-65
2023/05/12 09:09:17;;;;;;;8.70;4.07;;;;;;;11.54;100.00;98855.38;4480944;31;20881;-66
2023/05/12 09:11:45;;;;;;;7.22;4.05;;;;;;;11.53;100.00;98858.97;4489670;31;20136;-66
2023/05/12 09:14:18;;;;;;;5.87;4.35;;;;;;;11.44;100.00;98846.69;4481306;31;20144;-66
2023/05/12 09:16:47;;;;;;;7.45;4.05;;;;;;;11.59;100.00;98848.91;4482836;31;20157;-66
2023/05/12 09:19:19;;;;;;;6.20;4.20;;;;;;;11.84;100.00;98856.16;4485283;31;20120;-66
2023/05/12 09:21:47;;;;;;;5.25;3.85;;;;;;;11.78;100.00;98856.72;4489949;31;20095;-66
2023/05/12 09:24:16;;;;;;;6.10;4.53;;;;;;;11.90;100.00;98860.81;4495345;31;20176;-66
2023/05/12 09:26:52;;;;;;;5.68;4.18;;;;;;;11.52;100.00;98861.72;4490529;31;20092;-66
2023/05/12 09:29:21;;;;;;;6.80;3.55;;;;;;;11.45;100.00;98866.72;4491626;31;20117;-66
2023/05/12 09:32:00;;;;;;;5.78;3.85;;;;;;;11.54;100.00;98870.31;4490405;31;20110;-66
2023/05/12 09:34:30;;;;;;;6.93;4.15;;;;;;;11.49;100.00;98872.50;4491211;31;20172;-66
2023/05/12 09:37:05;;;;;;;8.20;3.65;;;;;;;11.35;100.00;98869.38;4488845;31;20943;-66
2023/05/12 09:39:33;;;;;;;5.90;3.85;;;;;;;11.23;100.00;98867.03;4489673;31;20441;-66
2023/05/12 09:42:00;;;;;;;8.48;4.15;;;;;;;11.06;100.00;98874.59;4492042;31;20110;-64
2023/05/12 09:44:29;;;;;;;6.50;4.00;;;;;;;10.85;100.00;98877.34;4493524;31;20096;-65
2023/05/12 09:47:07;;;;;;;6.15;3.87;;;;;;;10.77;100.00;98874.59;4500302;31;20096;-65
2023/05/12 09:49:34;;;;;;;7.12;5.30;;;;;;;10.75;100.00;98864.25;4496716;31;20746;-65
2023/05/12 09:52:03;;;;;;;6.60;4.15;;;;;;;10.89;100.00;98870.06;4490083;31;20106;-66
2023/05/12 09:54:32;;;;;;;7.72;3.95;;;;;;;11.10;100.00;98875.19;4491980;31;20557;-66
2023/05/12 09:57:03;;;;;;;6.25;4.37;;;;;;;11.13;100.00;98872.28;4492596;31;20096;-66
2023/05/12 09:59:37;;;;;;;6.65;4.32;;;;;;;11.23;100.00;98872.25;4491714;31;20127;-66
2023/05/12 10:02:05;;;;;;;7.03;4.22;;;;;;;11.42;100.00;98874.06;4487305;31;20656;-66
2023/05/12 10:04:44;;;;;;;6.37;4.30;;;;;;;11.61;100.00;98876.66;4476694;31;20260;-66
2023/05/12 10:07:13;;;;;;;5.62;2.67;;;;;;;11.61;100.00;98876.66;4487016;31;20104;-66
2023/05/12 10:09:41;;;;;;;6.85;2.97;;;;;;;11.40;100.00;98868.94;4491908;31;20131;-66
2023/05/12 10:12:09;;;;;;;5.55;4.50;;;;;;;11.14;100.00;98856.41;4488093;31;20156;-65
2023/05/12 10:14:37;;;;;;;5.68;3.85;;;;;;;11.06;100.00;98866.75;4482652;31;20547;-66
2023/05/12 10:17:05;;;;;;;11.52;4.53;;;;;;;10.96;100.00;98869.38;4485333;31;20116;-64
2023/05/12 10:19:34;;;;;;;4.37;3.28;;;;;;;10.87;100.00;98859.72;4496489;31;20096;-65
2023/05/12 10:22:01;;;;;;;5.70;4.22;;;;;;;10.96;100.00;98865.91;4492833;31;20163;-66
2023/05/12 10:24:29;;;;;;;6.15;3.83;;;;;;;10.75;100.00;98864.25;4484195;31;20126;-66
2023/05/12 10:26:58;;;;;;;6.12;3.72;;;;;;;10.72;100.00;98861.91;4490273;31;20106;-66
2023/05/12 10:29:29;;;;;;;7.35;4.00;;;;;;;10.79;100.00;98862.16;4489472;31;20122;-66
2023/05/12 10:31:59;;;;;;;8.80;4.32;;;;;;;10.62;100.00;98872.34;4490099;31;20155;-66
2023/05/12 10:34:35;;;;;;;6.75;4.12;;;;;;;10.59;100.00;98871.78;4490433;31;20107;-66
2023/05/12 10:37:07;;;;;;;6.65;4.25;;;;;;;10.79;100.00;98865.59;4488976;31;20091;-65
2023/05/12 10:39:36;;;;;;;9.35;4.97;;;;;;;10.95;100.00;98874.75;4484274;31;20080;-65
2023/05/12 10:42:07;;;;;;;7.68;5.00;;;;;;;10.64;100.00;98878.31;4497003;31;20136;-65
2023/05/12 10:44:35;;;;;;;5.40;4.37;;;;;;;10.62;100.00;98866.28;4489032;31;20152;-65
2023/05/12 10:47:12;;;;;;;10.35;5.60;;;;;;;10.61;100.00;98862.00;4500136;31;20118;-65
2023/05/12 10:49:41;;;;;;;10.68;5.22;;;;;;;10.46;100.00;98865.03;4491934;31;20120;-64
2023/05/12 10:52:11;;;;;;;8.52;5.25;;;;;;;10.46;100.00;98867.63;4493632;31;20096;-65
2023/05/12 10:54:43;;;;;;;8.73;5.45;;;;;;;10.37;100.00;98865.81;4490437;31;20092;-65
2023/05/12 10:57:13;;;;;;;7.07;5.28;;;;;;;10.34;100.00;98870.47;4492701;31;20099;-65
2023/05/12 11:00:03;;;;;;;9.88;6.10;;;;;;;10.42;100.00;98866.25;4490541;31;20100;-65
2023/05/12 11:02:33;;;;;;;10.43;5.87;;;;;;;10.55;100.00;98873.03;4486382;31;20088;-65
2023/05/12 11:05:10;;;;;;;13.38;6.22;;;;;;;10.57;100.00;98878.97;4486904;31;20438;-65
2023/05/12 11:07:46;;;;;;;9.00;6.07;;;;;;;10.64;100.00;98880.06;4482118;31;20145;-65
2023/05/12 11:10:13;;;;;;;10.25;6.78;;;;;;;10.73;100.00;98881.88;4492970;31;20175;-64
2023/05/12 11:12:44;;;;;;;10.05;6.32;;;;;;;10.93;100.00;98871.41;4489777;31;20100;-65
2023/05/12 11:15:12;;;;;;;9.60;5.72;;;;;;;11.04;100.00;98867.84;4491569;31;20084;-65
2023/05/12 11:17:39;;;;;;;8.15;5.32;;;;;;;10.92;100.00;98867.97;4490410;31;20122;-65
2023/05/12 11:20:08;;;;;;;10.27;6.28;;;;;;;10.92;100.00;98875.03;4480236;32;20618;-64
2023/05/12 11:22:36;;;;;;;8.02;5.65;;;;;;;11.03;100.00;98874.88;4491644;31;20599;-64
2023/05/12 11:25:10;;;;;;;9.27;5.65;;;;;;;11.09;100.00;98869.09;4493925;31;20100;-64
2023/05/12 11:27:41;;;;;;;10.23;6.15;;;;;;;11.13;100.00;98860.00;4488404;31;20118;-64
2023/05/12 11:30:10;;;;;;;9.98;6.05;;;;;;;11.00;100.00;98862.88;4494171;31;20152;-65
2023/05/12 11:32:37;;;;;;;11.52;7.10;;;;;;;10.92;100.00;98865.37;4494633;31;20124;-65
2023/05/12 11:35:11;;;;;;;11.55;7.47;;;;;;;10.83;100.00;98869.62;4496676;31;20157;-65